• Join FlightAware (Why Join?)
  • Login
  • US Flag 
04:47AM EDT


 

Airport Tracker/Info


-or-


 

Live Flight TrackerFlight Track Log ✈ N722NG ✈ 26.08.2014 ✈ KCQF - KNEW

Flight Track Log - Related Links

Times and Time Zones

All times are in EDT time to prevent confusion due to time zone crossing. See the N722NG flight status page for this flight to view local times or setup timezone preferences in your user account.

Time Position Orientation Groundspeed Altitude Reporting Facility
EDT Latitude Longitude Course Direction KTS MPH feet Rate Location/Type
03:03PM 30.4611 -88.0250 258° West 144 166 3,600  Level Houston Center
03:04PM 30.4506 -88.0733 256° West 147 169 4,400 840 Climbing Houston Center
03:05PM 30.4411 -88.1253 258° West 157 181 5,400 720 Climbing Houston Center
03:06PM 30.4317 -88.1742 257° West 158 182 6,000 180 Climbing Houston Center
03:07PM 30.3947 -88.1635 258° West  Level FlightAware Approximate
03:08PM 30.3859 -88.2131 258° West  Level FlightAware Approximate
03:08PM 30.4061 -88.3011 257° West 179 206 6,000  Level Houston Center
03:09PM 30.3939 -88.3567 256° West 179 206 6,000  Level Houston Center
03:10PM 30.3839 -88.4122 258° West 179 206 6,000  Level Houston Center
03:11PM 30.3719 -88.4672 256° West 179 206 6,000  Level Houston Center
03:12PM 30.3606 -88.5233 257° West 179 206 6,000  Level Houston Center
03:13PM 30.3469 -88.5900 257° West 179 206 6,000  Level Houston Center
03:14PM 30.3347 -88.6447 256° West 179 206 6,000  Level Houston Center
03:16PM 30.3122 -88.7550 256° West 178 205 6,000  Level Houston Center
03:17PM 30.2994 -88.8142 256° West 176 203 6,000  Level Houston Center
03:18PM 30.2900 -88.8650 258° West 178 205 6,000  Level Houston Center
03:19PM 30.2764 -88.9322 257° West 178 205 6,000  Level Houston Center
03:20PM 30.2642 -88.9864 255° West 178 205 6,000  Level Houston Center
03:21PM 30.2575 -89.0111 253° West 178 205 6,000  Level Houston Center
03:21PM 30.2531 -89.0414 260° West 178 205 6,000  Level Houston Center
03:22PM 30.2419 -89.0958 257° West 178 205 6,000  Level Houston Center
03:23PM 30.2303 -89.1522 257° West 178 205 6,000  Level Houston Center
03:24PM 30.2183 -89.2072 256° West 178 205 6,000  Level Houston Center
03:25PM 30.2039 -89.2722 256° West 177 204 6,000  Level Houston Center
03:26PM 30.1953 -89.3236 259° West 176 203 6,100  Climbing Houston Center
03:27PM 30.1928 -89.3278 235° Southwest 177 204 6,000  Descending Houston Center
03:27PM 30.1808 -89.3822 256° West 177 204 6,100  Climbing Houston Center
03:28PM 30.1683 -89.4406 256° West 177 204 6,100 -240 Level Houston Center
03:29PM 30.1614 -89.4842 260° West 179 206 5,700 -540 Descending Houston Center
03:30PM 30.1572 -89.4956 247° West 178 205 5,500 -660 Descending Houston Center
03:30PM 30.1472 -89.5497 258° West 197 227 5,000 -720 Descending Houston Center
03:31PM 30.1436 -89.5578 243° Southwest 188 216 4,800 -840 Descending Houston Center
03:31PM 30.1328 -89.6178 258° West 203 234 4,200 -780 Descending Houston Center
03:32PM 30.1278 -89.6331 249° West 195 224 4,000 -720 Descending Houston Center
03:32PM 30.1183 -89.6786 257° West 199 229 3,500 -720 Descending Houston Center
03:33PM 30.1133 -89.6953 251° West 195 224 3,300 -720 Descending Houston Center
03:33PM 30.1036 -89.7417 256° West 197 227 2,800 -720 Descending Houston Center
03:34PM 30.1008 -89.7572 258° West 196 226 2,600 -240 Descending Houston Center
03:34PM 30.0869 -89.8000 249° West 190 219 2,600 -240 Level Houston Center
03:35PM 30.0828 -89.8142 251° West 192 221 2,400 -420 Descending Houston Center
03:35PM 30.0719 -89.8561 253° West 184 212 2,200 -420 Descending Houston Center
03:36PM 30.0669 -89.8708 249° West 187 215 2,000 -420 Descending Houston Center
03:36PM 30.0531 -89.9097 248° West 187 215 1,800 -240 Descending Houston Center
03:37PM 30.0469 -89.9258 246° West 187 215 1,800 -300 Level Houston Center
03:37PM 30.0297 -89.9658 244° Southwest 179 206 1,500 -540 Descending Houston Center
03:38PM 30.0250 -89.9781 246° West 186 214 1,300 -540 Descending Houston Center
03:38PM 30.0125 -90.0147 249° West 153 176 1,000 -540 Descending Houston Center
03:39PM 30.0125 -90.0228 270° West 154 177 800 -480 Descending Houston Center
03:41PM 30.0802 -90.0029 14° North  Level FlightAware Approximate